Time;durP1;ratioP1;P1;durP2;ratioP2;P2;SDS_P1;SDS_P2;PMS_P1;PMS_P2;Temp;Humidity;BMP_temperature;BMP_pressure;BME280_temperature;BME280_humidity;BME280_pressure;Samples;Min_cycle;Max_cycle;Signal;HPM_P1;HPM_P2
2022/03/17 00:02:06;;;;;;;25.15;16.63;;;11.10;84.60;;;;;;5142512;27;39300;-58
2022/03/17 00:04:35;;;;;;;22.42;16.50;;;11.10;84.60;;;;;;5144083;27;36603;-58
2022/03/17 00:07:03;;;;;;;28.00;18.27;;;11.10;85.00;;;;;;5143600;27;37349;-58
2022/03/17 00:09:32;;;;;;;23.83;15.82;;;11.10;84.70;;;;;;5143238;27;36578;-59
2022/03/17 00:11:59;;;;;;;24.63;16.55;;;11.10;85.50;;;;;;5142951;27;36213;-58
2022/03/17 00:14:26;;;;;;;23.10;15.88;;;11.20;85.00;;;;;;5144541;27;37150;-58
2022/03/17 00:16:54;;;;;;;25.40;16.27;;;11.10;85.20;;;;;;5142602;27;37332;-58
2022/03/17 00:19:21;;;;;;;24.58;15.63;;;11.10;85.30;;;;;;5142773;27;38400;-58
2022/03/17 00:21:50;;;;;;;24.27;16.55;;;11.10;85.40;;;;;;5142539;27;37216;-58
2022/03/17 00:24:18;;;;;;;27.27;17.10;;;11.10;85.90;;;;;;5142264;27;37561;-58
2022/03/17 00:26:45;;;;;;;25.40;16.35;;;11.10;85.80;;;;;;5143482;27;39418;-58
2022/03/17 00:29:13;;;;;;;23.00;16.52;;;11.10;85.90;;;;;;5143589;27;36617;-58
2022/03/17 00:31:40;;;;;;;26.35;17.55;;;11.10;86.10;;;;;;5142776;27;37699;-57
2022/03/17 00:34:08;;;;;;;26.15;16.63;;;11.10;86.30;;;;;;5143880;27;36828;-58
2022/03/17 00:36:36;;;;;;;24.25;16.30;;;11.10;86.30;;;;;;5141323;27;37447;-58
2022/03/17 00:39:07;;;;;;;27.77;18.55;;;11.10;86.50;;;;;;5141993;27;36692;-57
2022/03/17 00:41:35;;;;;;;24.35;16.25;;;11.10;86.60;;;;;;5142926;27;39037;-57
2022/03/17 00:44:03;;;;;;;25.30;16.33;;;11.10;86.70;;;;;;5143019;27;37257;-58
2022/03/17 00:46:30;;;;;;;23.00;16.67;;;11.10;86.80;;;;;;5142965;27;37593;-57
2022/03/17 00:48:57;;;;;;;26.23;17.42;;;11.10;86.70;;;;;;5143202;27;36467;-58
2022/03/17 00:51:25;;;;;;;24.48;17.25;;;11.00;86.80;;;;;;5143182;27;38195;-58
2022/03/17 00:53:52;;;;;;;23.85;17.17;;;11.10;87.20;;;;;;5143687;27;38042;-58
2022/03/17 00:56:21;;;;;;;26.15;17.45;;;11.10;87.30;;;;;;5142371;27;39039;-59
2022/03/17 00:58:48;;;;;;;22.38;15.48;;;11.10;87.40;;;;;;5141608;27;36622;-59
2022/03/17 01:01:16;;;;;;;24.85;17.23;;;11.00;87.30;;;;;;5142256;27;37003;-58
2022/03/17 01:03:44;;;;;;;26.65;17.85;;;11.10;87.00;;;;;;5141471;27;38913;-58
2022/03/17 01:06:12;;;;;;;24.95;17.25;;;11.10;87.20;;;;;;5141806;27;38303;-49
2022/03/17 01:08:40;;;;;;;26.60;16.77;;;11.00;87.40;;;;;;5141473;27;37445;-52
2022/03/17 01:11:08;;;;;;;25.15;17.48;;;11.10;87.50;;;;;;5143150;27;20085;-53
2022/03/17 01:13:37;;;;;;;24.40;16.98;;;11.00;87.60;;;;;;5142197;27;36994;-50
2022/03/17 01:16:05;;;;;;;25.35;17.40;;;11.00;87.80;;;;;;5142839;27;36596;-51
2022/03/17 01:18:32;;;;;;;24.70;17.95;;;11.10;87.90;;;;;;5142133;27;37290;-50
2022/03/17 01:20:59;;;;;;;23.83;16.83;;;11.00;87.70;;;;;;5140502;27;37272;-50
2022/03/17 01:23:27;;;;;;;25.08;17.13;;;11.00;87.80;;;;;;5141149;27;35730;-50
2022/03/17 01:25:54;;;;;;;25.70;17.95;;;11.10;87.70;;;;;;5138720;27;38051;-48
2022/03/17 01:28:21;;;;;;;24.17;17.08;;;11.00;87.70;;;;;;5140634;27;38735;-49
2022/03/17 01:30:52;;;;;;;26.77;17.13;;;11.00;87.80;;;;;;5140708;27;36200;-51
2022/03/17 01:33:19;;;;;;;25.38;17.58;;;11.00;87.70;;;;;;5141837;27;36741;-49
2022/03/17 01:35:46;;;;;;;27.70;18.52;;;11.00;87.90;;;;;;5141381;27;38334;-47
2022/03/17 01:38:14;;;;;;;21.45;15.82;;;11.00;87.90;;;;;;5142286;27;37282;-50
2022/03/17 01:40:41;;;;;;;26.15;17.58;;;11.00;87.90;;;;;;5141561;27;37435;-51
2022/03/17 01:43:08;;;;;;;29.67;17.90;;;11.00;88.00;;;;;;5140992;27;35406;-49
2022/03/17 01:45:36;;;;;;;24.58;16.95;;;11.00;88.00;;;;;;5141350;27;39334;-52
2022/03/17 01:48:05;;;;;;;26.45;18.13;;;11.00;87.80;;;;;;5140115;27;38627;-51
2022/03/17 01:50:33;;;;;;;25.23;17.83;;;11.00;87.80;;;;;;5140262;27;37504;-52
2022/03/17 01:53:00;;;;;;;24.20;18.15;;;11.10;88.00;;;;;;5141938;27;36854;-51
2022/03/17 01:55:28;;;;;;;24.63;16.98;;;11.10;87.80;;;;;;5140568;27;37242;-51
2022/03/17 01:57:56;;;;;;;25.15;18.00;;;11.10;87.70;;;;;;5140399;27;39650;-50
2022/03/17 02:00:23;;;;;;;26.95;17.13;;;11.10;87.60;;;;;;5140277;27;38208;-50
2022/03/17 02:02:52;;;;;;;23.60;16.60;;;11.10;87.60;;;;;;5141222;27;36534;-51
2022/03/17 02:05:21;;;;;;;25.80;18.30;;;11.10;87.60;;;;;;5140378;27;37984;-48
2022/03/17 02:07:50;;;;;;;23.50;17.65;;;11.10;87.70;;;;;;5140534;27;38516;-50
2022/03/17 02:10:17;;;;;;;27.63;17.73;;;11.10;87.60;;;;;;5140596;27;37456;-49
2022/03/17 02:15:32;;;;;;;25.42;17.67;;;11.20;87.70;;;;;;5140833;27;38066;-48
2022/03/17 02:17:59;;;;;;;27.35;17.75;;;11.10;87.50;;;;;;5141377;27;39315;-51
2022/03/17 02:20:28;;;;;;;24.70;17.38;;;11.10;87.80;;;;;;5141337;27;37656;-48
2022/03/17 02:25:33;;;;;;;27.52;18.60;;;11.10;88.00;;;;;;5140927;27;36236;-51
2022/03/17 02:25:50;;;;;;;27.48;19.08;;;11.10;88.70;;;;;;5141567;27;37870;-51
2022/03/17 02:28:18;;;;;;;26.70;18.27;;;11.20;89.20;;;;;;5139998;27;36600;-51
2022/03/17 02:30:46;;;;;;;25.08;18.38;;;11.10;89.70;;;;;;5140700;27;36901;-49
2022/03/17 02:33:16;;;;;;;27.77;18.67;;;11.10;89.20;;;;;;5139265;27;36607;-52
2022/03/17 02:35:45;;;;;;;27.10;18.80;;;11.10;89.30;;;;;;5140234;27;37657;-51
2022/03/17 02:38:13;;;;;;;27.77;18.50;;;11.20;89.60;;;;;;5141866;27;37729;-50
2022/03/17 02:40:43;;;;;;;26.83;18.88;;;11.10;89.70;;;;;;5140620;27;37543;-50
2022/03/17 02:43:14;;;;;;;23.45;17.83;;;11.10;89.80;;;;;;5140491;27;39021;-49
2022/03/17 02:45:43;;;;;;;26.05;18.55;;;11.10;89.90;;;;;;5141556;27;37367;-51
2022/03/17 02:48:10;;;;;;;24.13;18.27;;;11.10;90.00;;;;;;5140991;27;37680;-49
2022/03/17 02:50:39;;;;;;;26.90;18.90;;;11.10;90.00;;;;;;5141107;27;37994;-51
2022/03/17 02:53:07;;;;;;;26.05;18.90;;;11.20;90.00;;;;;;5140430;27;37880;-49
2022/03/17 02:55:35;;;;;;;26.23;19.42;;;11.20;89.90;;;;;;5139035;27;37584;-52
2022/03/17 02:58:04;;;;;;;25.48;18.17;;;11.20;90.00;;;;;;5140646;27;36451;-49
2022/03/17 03:00:33;;;;;;;27.83;19.13;;;11.20;90.00;;;;;;5141390;27;37296;-50
2022/03/17 03:03:01;;;;;;;26.27;18.77;;;11.20;90.00;;;;;;5144506;27;37862;-51
2022/03/17 03:05:28;;;;;;;27.17;19.05;;;11.20;90.00;;;;;;5144611;27;37322;-49
2022/03/17 03:07:56;;;;;;;28.30;20.20;;;11.20;90.00;;;;;;5145449;27;37403;-52
2022/03/17 03:10:23;;;;;;;25.70;19.00;;;11.20;90.10;;;;;;5144206;27;37493;-51
2022/03/17 03:12:51;;;;;;;27.05;18.77;;;11.20;90.10;;;;;;5143636;27;37468;-50
2022/03/17 03:15:18;;;;;;;28.25;19.75;;;11.20;90.10;;;;;;5145083;27;37142;-50
2022/03/17 03:17:47;;;;;;;25.17;18.92;;;11.20;90.60;;;;;;5143825;27;37587;-49
2022/03/17 03:20:14;;;;;;;27.83;19.13;;;11.20;90.40;;;;;;5143874;27;37406;-51
2022/03/17 03:22:41;;;;;;;28.02;18.95;;;11.20;90.50;;;;;;5143806;27;37233;-50
2022/03/17 03:25:10;;;;;;;27.33;20.20;;;11.20;90.50;;;;;;5143991;27;39979;-52
2022/03/17 03:27:40;;;;;;;24.67;18.08;;;11.10;90.80;;;;;;5144508;27;37264;-48
2022/03/17 03:30:09;;;;;;;25.55;19.05;;;11.20;90.80;;;;;;5143692;27;36370;-51
2022/03/17 03:32:36;;;;;;;30.58;20.63;;;11.20;90.80;;;;;;5144395;27;37337;-49
2022/03/17 03:37:22;;;;;;;26.90;18.77;;;11.10;91.10;;;;;;5144108;27;38209;-51
2022/03/17 03:37:53;;;;;;;29.33;19.80;;;11.20;91.20;;;;;;5143588;27;38080;-50
2022/03/17 03:40:20;;;;;;;29.85;20.77;;;11.10;91.10;;;;;;5142173;27;37336;-51
2022/03/17 03:42:47;;;;;;;28.38;20.05;;;11.20;91.30;;;;;;5141331;27;35555;-50
2022/03/17 03:45:15;;;;;;;31.65;21.42;;;11.10;91.60;;;;;;5143419;27;37059;-51
2022/03/17 03:47:42;;;;;;;27.58;20.35;;;11.10;91.80;;;;;;5142935;27;37824;-49
2022/03/17 03:50:12;;;;;;;26.33;20.25;;;11.10;91.90;;;;;;5144394;27;36413;-50
2022/03/17 03:52:39;;;;;;;26.80;20.52;;;11.10;92.00;;;;;;5143406;27;36908;-51
2022/03/17 03:55:08;;;;;;;29.70;21.25;;;11.00;92.50;;;;;;5142628;27;37578;-50
2022/03/17 03:57:35;;;;;;;29.52;21.40;;;11.00;93.60;;;;;;5142955;27;37682;-51
2022/03/17 04:00:04;;;;;;;31.33;23.95;;;11.00;94.50;;;;;;5142718;27;38295;-51
2022/03/17 04:02:31;;;;;;;32.03;22.90;;;10.90;96.10;;;;;;5142279;27;37043;-51
2022/03/17 04:04:59;;;;;;;33.03;23.67;;;10.80;96.50;;;;;;5143116;27;37417;-50
2022/03/17 04:07:28;;;;;;;32.78;23.35;;;10.60;97.60;;;;;;5143785;27;36535;-48
2022/03/17 04:09:55;;;;;;;30.58;23.27;;;10.60;98.10;;;;;;5142934;27;37275;-51
2022/03/17 04:12:22;;;;;;;33.47;25.35;;;10.50;99.60;;;;;;5141886;27;36248;-51
2022/03/17 04:14:50;;;;;;;33.10;25.92;;;10.40;99.90;;;;;;5143384;27;38243;-50
2022/03/17 04:17:17;;;;;;;34.47;26.10;;;10.40;99.90;;;;;;5142659;27;35545;-51
2022/03/17 04:19:44;;;;;;;33.75;25.50;;;10.30;99.90;;;;;;5143385;27;37509;-49
2022/03/17 04:22:12;;;;;;;37.10;28.15;;;10.30;99.90;;;;;;5143031;27;36736;-52
2022/03/17 04:24:40;;;;;;;37.25;26.83;;;10.30;99.90;;;;;;5144099;27;37087;-48
2022/03/17 04:27:08;;;;;;;37.35;27.90;;;10.20;99.90;;;;;;5142325;27;37557;-50
2022/03/17 04:29:35;;;;;;;40.35;28.20;;;10.20;99.90;;;;;;5141595;27;37282;-50
2022/03/17 04:32:02;;;;;;;41.22;28.23;;;10.20;99.90;;;;;;5140001;27;37700;-50
2022/03/17 04:34:30;;;;;;;40.88;28.92;;;10.10;99.90;;;;;;5141745;27;37390;-48
2022/03/17 04:36:57;;;;;;;41.95;29.85;;;10.10;99.90;;;;;;5140798;27;39180;-50
2022/03/17 04:39:26;;;;;;;39.63;29.45;;;10.10;99.90;;;;;;5142753;27;36237;-51
2022/03/17 04:41:54;;;;;;;45.22;30.67;;;10.00;99.90;;;;;;5141115;27;37527;-50
2022/03/17 04:44:22;;;;;;;41.47;31.08;;;10.00;99.90;;;;;;5142140;27;38450;-49
2022/03/17 04:46:49;;;;;;;48.00;32.92;;;10.00;99.90;;;;;;5143513;27;37369;-49
2022/03/17 04:49:16;;;;;;;43.50;31.52;;;10.00;99.90;;;;;;5142505;27;38786;-50
2022/03/17 04:51:44;;;;;;;49.72;34.25;;;9.90;99.90;;;;;;5141884;27;35609;-52
2022/03/17 04:54:10;;;;;;;50.47;34.53;;;9.90;99.90;;;;;;5142269;27;36804;-49
2022/03/17 04:56:37;;;;;;;49.13;34.03;;;9.90;99.90;;;;;;5143399;27;36454;-47
2022/03/17 04:59:06;;;;;;;48.53;32.85;;;9.90;99.90;;;;;;5141071;27;37494;-50
2022/03/17 05:01:33;;;;;;;46.13;31.98;;;9.90;99.90;;;;;;5140666;27;36756;-49
2022/03/17 05:04:01;;;;;;;34.88;25.77;;;9.90;99.90;;;;;;5141456;27;38525;-51
2022/03/17 05:06:29;;;;;;;32.95;22.85;;;9.90;99.90;;;;;;5143127;27;37631;-48
2022/03/17 05:08:59;;;;;;;21.20;15.07;;;9.90;99.90;;;;;;5142452;27;37148;-50
2022/03/17 05:11:26;;;;;;;19.40;13.30;;;9.90;99.90;;;;;;5141545;27;38080;-51
2022/03/17 05:13:53;;;;;;;18.75;12.50;;;9.80;99.90;;;;;;5141919;27;36249;-49
2022/03/17 05:16:22;;;;;;;14.63;10.30;;;9.80;99.90;;;;;;5141215;27;37621;-51
2022/03/17 05:18:51;;;;;;;13.18;8.70;;;9.70;99.90;;;;;;5142994;27;37506;-49
2022/03/17 05:21:20;;;;;;;12.80;7.10;;;9.70;99.90;;;;;;5142400;27;36371;-57
2022/03/17 05:23:47;;;;;;;10.38;7.38;;;9.60;99.90;;;;;;5141415;27;37873;-58
2022/03/17 05:26:14;;;;;;;9.25;6.55;;;9.50;99.90;;;;;;5142916;27;38612;-57
2022/03/17 05:28:42;;;;;;;8.95;5.82;;;9.40;99.90;;;;;;5142253;27;38302;-56
2022/03/17 05:31:09;;;;;;;10.05;6.05;;;9.30;99.90;;;;;;5143000;27;35969;-58
2022/03/17 05:33:38;;;;;;;10.20;5.90;;;9.30;99.90;;;;;;5142954;27;37589;-57
2022/03/17 05:36:06;;;;;;;9.73;7.07;;;9.20;99.90;;;;;;5142991;27;38881;-57
2022/03/17 05:38:33;;;;;;;9.73;6.18;;;9.20;99.90;;;;;;5142242;27;37403;-57
2022/03/17 05:41:00;;;;;;;10.57;6.18;;;9.10;99.90;;;;;;5141412;27;35975;-57
2022/03/17 05:43:28;;;;;;;11.60;6.95;;;9.10;99.90;;;;;;5141713;27;38016;-58
2022/03/17 05:45:55;;;;;;;15.82;7.95;;;9.10;99.90;;;;;;5142417;27;36516;-57
2022/03/17 05:48:23;;;;;;;14.10;8.23;;;9.10;99.90;;;;;;5142273;27;38615;-58
2022/03/17 05:50:51;;;;;;;16.02;9.05;;;9.20;99.90;;;;;;5142671;27;36734;-57
2022/03/17 05:53:18;;;;;;;17.42;9.52;;;9.00;99.90;;;;;;5140811;27;38436;-57
2022/03/17 05:55:46;;;;;;;15.48;9.02;;;9.00;99.90;;;;;;5142222;27;40436;-49
2022/03/17 05:58:13;;;;;;;16.33;8.85;;;9.00;99.90;;;;;;5139726;27;39959;-48
2022/03/17 06:00:41;;;;;;;16.08;8.38;;;9.00;99.90;;;;;;5137811;27;36694;-48
2022/03/17 06:03:08;;;;;;;16.70;8.77;;;8.90;99.90;;;;;;5140585;27;36326;-57
2022/03/17 06:05:35;;;;;;;15.25;7.43;;;8.90;99.90;;;;;;5139228;27;37501;-57
2022/03/17 06:08:04;;;;;;;12.40;5.75;;;8.90;99.90;;;;;;5141474;27;38045;-57
2022/03/17 06:10:34;;;;;;;15.18;5.95;;;8.80;99.90;;;;;;5141236;27;37582;-57
2022/03/17 06:13:02;;;;;;;18.65;6.20;;;8.80;99.90;;;;;;5140034;27;38466;-48
2022/03/17 06:15:30;;;;;;;14.52;5.72;;;8.80;99.90;;;;;;5140869;27;39994;-50
2022/03/17 06:17:59;;;;;;;15.10;5.50;;;8.70;99.90;;;;;;5140431;27;37491;-48
2022/03/17 06:20:27;;;;;;;15.07;5.63;;;8.80;99.90;;;;;;5139084;27;36374;-52
2022/03/17 06:22:56;;;;;;;15.38;5.38;;;8.70;99.90;;;;;;5140470;27;37585;-49
2022/03/17 06:25:26;;;;;;;15.73;5.82;;;8.70;99.90;;;;;;5140098;27;37557;-50
2022/03/17 06:27:54;;;;;;;12.10;4.90;;;8.70;99.90;;;;;;5141660;27;38080;-52
2022/03/17 06:30:23;;;;;;;13.15;5.13;;;8.70;99.90;;;;;;5140257;27;37146;-51
2022/03/17 06:32:51;;;;;;;18.25;4.93;;;8.70;99.90;;;;;;5141141;27;37587;-57
2022/03/17 06:35:20;;;;;;;19.23;4.75;;;8.70;99.90;;;;;;5139209;27;36429;-58
2022/03/17 06:37:50;;;;;;;15.85;5.35;;;8.70;99.90;;;;;;5136062;27;37225;-58
2022/03/17 06:40:18;;;;;;;18.30;4.38;;;8.70;99.90;;;;;;5138864;27;36457;-58
2022/03/17 06:42:47;;;;;;;12.20;3.28;;;8.70;99.90;;;;;;5138262;27;38956;-57
2022/03/17 06:45:18;;;;;;;13.07;3.15;;;8.70;99.90;;;;;;5138573;27;37990;-58
2022/03/17 06:47:46;;;;;;;11.10;3.20;;;8.70;99.90;;;;;;5137416;27;38650;-57
2022/03/17 06:50:15;;;;;;;13.13;3.00;;;8.60;99.90;;;;;;5138101;27;35219;-50
2022/03/17 06:52:43;;;;;;;12.32;2.30;;;8.60;99.90;;;;;;5138045;27;38059;-49
2022/03/17 06:55:11;;;;;;;9.75;2.47;;;8.60;99.90;;;;;;5137292;27;37681;-52
2022/03/17 06:57:39;;;;;;;9.25;2.22;;;8.60;99.90;;;;;;5137346;27;36211;-57
2022/03/17 07:00:10;;;;;;;11.00;2.10;;;8.60;99.90;;;;;;5139845;27;35540;-57
2022/03/17 07:02:38;;;;;;;7.97;2.13;;;8.50;99.90;;;;;;5138923;27;37331;-57
2022/03/17 07:05:06;;;;;;;6.57;1.83;;;8.50;99.90;;;;;;5139475;27;37567;-52
2022/03/17 07:07:34;;;;;;;7.68;1.50;;;8.50;99.90;;;;;;5139324;27;38672;-51
2022/03/17 07:10:02;;;;;;;9.90;2.05;;;8.60;99.90;;;;;;5138902;27;37835;-51
2022/03/17 07:12:29;;;;;;;8.95;2.20;;;8.60;99.90;;;;;;5138609;27;37906;-52
2022/03/17 07:14:57;;;;;;;9.02;1.75;;;8.60;99.90;;;;;;5138565;27;37132;-50
2022/03/17 07:17:26;;;;;;;6.80;1.63;;;8.70;99.90;;;;;;5139120;27;39071;-58
2022/03/17 07:19:59;;;;;;;10.95;1.80;;;8.60;99.90;;;;;;5140483;27;36365;-57
2022/03/17 07:22:27;;;;;;;;;;;8.60;99.90;;;;;;5136898;27;38523;-57
2022/03/17 07:24:54;;;;;;;10.73;2.33;;;8.60;99.90;;;;;;5129462;27;39467;-57
2022/03/17 07:27:23;;;;;;;13.73;2.10;;;8.60;99.90;;;;;;5132227;27;37247;-57
2022/03/17 07:29:52;;;;;;;10.63;1.55;;;8.60;99.90;;;;;;5132698;27;36468;-57
2022/03/17 07:32:19;;;;;;;15.57;2.70;;;8.60;99.90;;;;;;5132441;27;38582;-57
2022/03/17 07:34:49;;;;;;;14.02;2.47;;;8.60;99.90;;;;;;5132714;27;37923;-51
2022/03/17 07:37:16;;;;;;;14.45;3.13;;;8.60;99.90;;;;;;5134077;27;37191;-51
2022/03/17 07:39:44;;;;;;;15.15;2.90;;;8.50;99.90;;;;;;5133955;27;36436;-57
2022/03/17 07:42:11;;;;;;;13.10;1.98;;;8.50;99.90;;;;;;5131212;27;36351;-51
2022/03/17 07:44:40;;;;;;;13.77;2.60;;;8.50;99.90;;;;;;5132762;27;40158;-48
2022/03/17 07:47:08;;;;;;;11.95;2.40;;;8.60;99.90;;;;;;5135005;27;37524;-49
2022/03/17 07:49:36;;;;;;;11.85;1.73;;;8.60;99.90;;;;;;5136842;27;36404;-57
2022/03/17 07:52:07;;;;;;;13.45;2.60;;;8.60;99.90;;;;;;5137529;27;37935;-57
2022/03/17 07:54:35;;;;;;;11.73;2.53;;;8.60;99.90;;;;;;5135700;27;36531;-57
2022/03/17 07:57:03;;;;;;;15.00;2.40;;;8.50;99.90;;;;;;5136267;27;37323;-57
2022/03/17 07:59:31;;;;;;;12.07;1.88;;;8.50;99.90;;;;;;5136519;27;38123;-57
2022/03/17 08:01:58;;;;;;;16.60;2.72;;;8.50;99.90;;;;;;5134208;27;37363;-57
2022/03/17 08:04:26;;;;;;;12.82;2.40;;;8.50;99.90;;;;;;5135701;27;36689;-51
2022/03/17 08:06:53;;;;;;;12.30;2.15;;;8.50;99.90;;;;;;5136513;27;37161;-50
2022/03/17 08:09:22;;;;;;;15.82;2.50;;;8.50;99.90;;;;;;5136805;27;37435;-50
2022/03/17 08:11:50;;;;;;;12.20;1.95;;;8.50;99.90;;;;;;5135069;27;37651;-57
2022/03/17 08:14:17;;;;;;;14.82;2.78;;;8.50;99.90;;;;;;5134856;27;37725;-57
2022/03/17 08:16:45;;;;;;;12.52;2.33;;;8.50;99.90;;;;;;5135998;27;37270;-57
2022/03/17 08:19:12;;;;;;;17.23;2.92;;;8.50;99.90;;;;;;5134581;27;39486;-57
2022/03/17 08:21:40;;;;;;;17.80;2.38;;;8.50;99.90;;;;;;5134573;27;38484;-57
2022/03/17 08:24:07;;;;;;;21.45;4.10;;;8.50;99.90;;;;;;5134017;27;36612;-58
2022/03/17 08:26:37;;;;;;;17.63;4.28;;;8.60;99.90;;;;;;5134707;27;38949;-57
2022/03/17 08:29:04;;;;;;;18.02;3.40;;;8.60;99.90;;;;;;5135118;27;35266;-57
2022/03/17 08:31:32;;;;;;;13.77;2.22;;;8.60;99.90;;;;;;5134509;27;37885;-57
2022/03/17 08:34:00;;;;;;;11.45;1.88;;;8.60;99.90;;;;;;5135119;27;36414;-57
2022/03/17 08:36:28;;;;;;;15.57;2.17;;;8.60;99.90;;;;;;5135303;27;36245;-57
2022/03/17 08:38:55;;;;;;;11.07;2.28;;;8.60;99.90;;;;;;5134652;27;35323;-57
2022/03/17 08:41:23;;;;;;;16.90;2.75;;;8.60;99.60;;;;;;5135200;27;37013;-58
2022/03/17 08:43:52;;;;;;;11.77;2.10;;;8.50;99.60;;;;;;5136507;27;38665;-57
2022/03/17 08:49:22;;;;;;;9.75;1.50;;;8.50;99.30;;;;;;5136712;27;37361;-57
2022/03/17 08:51:51;;;;;;;13.38;1.90;;;8.60;98.90;;;;;;5135554;27;37597;-57
2022/03/17 08:54:20;;;;;;;15.48;2.65;;;8.50;98.40;;;;;;5134053;27;37792;-57
2022/03/17 08:56:47;;;;;;;13.00;2.38;;;8.50;98.40;;;;;;5136358;27;37785;-57
2022/03/17 08:59:16;;;;;;;12.82;2.45;;;8.50;98.50;;;;;;5133295;27;36569;-57
2022/03/17 09:01:43;;;;;;;14.68;2.63;;;8.50;98.60;;;;;;5133907;27;38749;-57
2022/03/17 09:04:14;;;;;;;13.05;2.28;;;8.50;98.80;;;;;;5135889;27;37568;-57
2022/03/17 09:06:43;;;;;;;16.10;2.13;;;8.70;98.70;;;;;;5133839;27;36939;-56
2022/03/17 09:09:11;;;;;;;13.30;2.17;;;8.70;98.30;;;;;;5134034;27;37096;-57
2022/03/17 09:11:39;;;;;;;13.70;2.17;;;8.80;98.10;;;;;;5132602;27;36288;-57
2022/03/17 09:14:07;;;;;;;13.77;2.22;;;8.90;98.00;;;;;;5134841;27;38100;-57
2022/03/17 09:16:36;;;;;;;13.98;2.58;;;8.90;97.50;;;;;;5135145;27;37245;-57
2022/03/17 09:19:03;;;;;;;11.85;1.80;;;8.80;97.10;;;;;;5135118;27;36720;-56
2022/03/17 09:21:31;;;;;;;16.77;3.20;;;8.80;96.40;;;;;;5135270;27;38563;-57
2022/03/17 09:24:00;;;;;;;10.18;2.15;;;8.70;96.20;;;;;;5134009;27;37841;-57
2022/03/17 09:26:27;;;;;;;10.75;2.08;;;8.80;96.60;;;;;;5134753;27;37398;-57
2022/03/17 09:28:55;;;;;;;11.15;1.92;;;8.70;96.70;;;;;;5133904;27;36254;-57
2022/03/17 09:31:22;;;;;;;15.40;2.55;;;8.90;97.00;;;;;;5135022;27;38319;-57
2022/03/17 09:33:51;;;;;;;16.85;2.72;;;9.00;97.00;;;;;;5135915;27;36553;-57
2022/03/17 09:36:18;;;;;;;11.43;2.10;;;9.10;96.90;;;;;;5135498;27;37012;-58
2022/03/17 09:39:39;;;;;;;18.85;2.80;;;9.20;96.80;;;;;;5135532;27;36151;-57
2022/03/17 09:41:35;;;;;;;17.92;2.60;;;9.30;96.50;;;;;;5134303;27;38020;-57
2022/03/17 09:44:03;;;;;;;11.57;2.15;;;9.40;96.60;;;;;;5134291;27;38005;-57
2022/03/17 09:46:32;;;;;;;11.45;1.83;;;9.50;96.60;;;;;;5135307;27;38288;-57
2022/03/17 09:49:02;;;;;;;12.82;2.67;;;9.60;96.20;;;;;;5135110;27;37859;-57
2022/03/17 09:51:30;;;;;;;14.32;2.42;;;9.70;95.80;;;;;;5135122;27;36408;-58
2022/03/17 09:54:00;;;;;;;15.73;2.88;;;9.80;95.80;;;;;;5135537;27;39116;-57
2022/03/17 09:56:29;;;;;;;18.25;2.53;;;9.80;95.60;;;;;;5133691;27;37378;-57
2022/03/17 09:58:58;;;;;;;19.98;2.78;;;9.90;95.30;;;;;;5133439;27;36645;-57
2022/03/17 10:01:28;;;;;;;11.80;2.65;;;10.00;94.90;;;;;;5134048;27;37470;-57
2022/03/17 10:04:00;;;;;;;17.30;3.65;;;10.10;95.00;;;;;;5135012;27;38122;-57
2022/03/17 10:06:29;;;;;;;13.52;2.22;;;10.30;95.00;;;;;;5135345;27;37194;-57
2022/03/17 10:08:57;;;;;;;9.18;1.83;;;10.80;94.40;;;;;;5135364;27;36871;-58
2022/03/17 10:11:26;;;;;;;14.07;2.15;;;11.30;93.20;;;;;;5133935;27;37288;-58
2022/03/17 10:13:56;;;;;;;8.55;2.05;;;11.90;91.80;;;;;;5135211;27;37852;-58
2022/03/17 10:16:25;;;;;;;10.95;1.90;;;12.60;91.10;;;;;;5134093;27;36185;-58
2022/03/17 10:19:03;;;;;;;9.60;2.15;;;13.00;87.60;;;;;;5133821;27;36457;-57
2022/03/17 10:21:31;;;;;;;8.48;1.75;;;13.00;82.50;;;;;;5133074;27;38509;-58
2022/03/17 10:24:00;;;;;;;13.20;2.03;;;13.10;85.50;;;;;;5132682;27;37797;-57
2022/03/17 10:26:34;;;;;;;12.43;2.42;;;13.40;85.70;;;;;;5134734;27;38159;-57
2022/03/17 10:29:10;;;;;;;13.27;2.95;;;13.30;77.60;;;;;;5132507;27;35313;-57
2022/03/17 10:31:55;;;;;;;14.02;2.60;;;13.00;78.50;;;;;;5132506;27;37402;-57
2022/03/17 10:34:27;;;;;;;10.98;2.50;;;12.80;78.50;;;;;;5131745;27;36702;-51
2022/03/17 10:37:09;;;;;;;11.30;2.45;;;12.90;81.80;;;;;;5132182;27;37500;-51
2022/03/17 10:39:37;;;;;;;12.43;2.45;;;12.80;76.70;;;;;;5133594;27;36899;-53
2022/03/17 10:42:13;;;;;;;14.68;2.88;;;12.50;81.00;;;;;;5133736;27;37474;-53
2022/03/17 10:44:42;;;;;;;12.25;2.70;;;12.20;78.50;;;;;;5133130;27;36677;-52
2022/03/17 10:47:10;;;;;;;15.13;2.67;;;12.30;80.10;;;;;;5133845;27;37288;-53
2022/03/17 10:49:39;;;;;;;14.85;2.78;;;12.60;80.10;;;;;;5134178;27;36577;-54
2022/03/17 10:52:06;;;;;;;11.88;2.28;;;12.60;79.90;;;;;;5133951;27;37546;-52
2022/03/17 10:54:34;;;;;;;13.23;2.30;;;12.70;79.40;;;;;;5134290;27;40089;-52
2022/03/17 10:57:05;;;;;;;18.65;3.33;;;13.00;81.80;;;;;;5133048;27;37513;-48
2022/03/17 10:59:42;;;;;;;12.93;2.65;;;13.50;77.80;;;;;;5133133;27;37501;-51
2022/03/17 11:02:10;;;;;;;13.35;2.55;;;13.90;70.80;;;;;;5132433;27;36381;-51
2022/03/17 11:04:42;;;;;;;11.25;2.58;;;13.90;73.00;;;;;;5133816;27;37669;-53
2022/03/17 11:07:13;;;;;;;12.70;2.03;;;13.80;72.30;;;;;;5133896;27;38534;-53
2022/03/17 11:09:42;;;;;;;16.90;2.70;;;13.70;72.60;;;;;;5134262;27;35452;-52
2022/03/17 11:12:10;;;;;;;12.65;2.25;;;13.50;73.50;;;;;;5133223;27;36372;-53
2022/03/17 11:14:42;;;;;;;12.48;2.95;;;13.40;73.00;;;;;;5134674;27;37585;-53
2022/03/17 11:17:12;;;;;;;12.00;2.42;;;13.50;74.10;;;;;;5133096;27;38770;-53
2022/03/17 11:19:42;;;;;;;15.43;2.65;;;13.70;71.60;;;;;;5133402;27;39098;-52
2022/03/17 11:22:14;;;;;;;18.40;2.83;;;13.80;70.70;;;;;;5134405;27;37438;-53
2022/03/17 11:24:41;;;;;;;12.82;2.17;;;13.80;68.80;;;;;;5136628;27;37911;-53
2022/03/17 11:27:11;;;;;;;11.38;2.00;;;13.80;68.30;;;;;;5136258;27;36311;-52
2022/03/17 11:29:40;;;;;;;16.17;2.35;;;13.80;67.30;;;;;;5136991;27;37879;-52
2022/03/17 11:32:10;;;;;;;11.90;2.25;;;14.00;67.80;;;;;;5137898;27;37688;-53
2022/03/17 11:34:39;;;;;;;11.73;2.22;;;14.30;64.50;;;;;;5136469;27;36494;-51
2022/03/17 11:37:26;;;;;;;15.00;3.28;;;14.10;63.60;;;;;;5137827;27;36365;-51
2022/03/17 11:39:56;;;;;;;11.77;2.35;;;13.90;64.50;;;;;;5136988;27;36579;-53
2022/03/17 11:42:30;;;;;;;14.43;2.78;;;13.70;65.20;;;;;;5136568;27;37510;-52
2022/03/17 11:45:11;;;;;;;10.32;2.67;;;13.50;65.10;;;;;;5135943;27;39292;-52
2022/03/17 11:47:43;;;;;;;14.85;2.25;;;13.70;67.30;;;;;;5137419;27;37486;-51
2022/03/17 11:50:24;;;;;;;11.15;2.58;;;14.00;68.80;;;;;;5136651;27;36802;-53
2022/03/17 11:52:57;;;;;;;12.35;2.35;;;14.20;67.60;;;;;;5136864;27;36390;-53
2022/03/17 11:55:48;;;;;;;15.35;3.00;;;14.40;68.50;;;;;;5137769;27;37671;-52
2022/03/17 11:58:39;;;;;;;9.70;2.22;;;14.50;65.20;;;;;;5136390;27;36206;-51
2022/03/17 12:01:11;;;;;;;12.32;2.95;;;14.50;63.50;;;;;;5133184;27;36340;-57
2022/03/17 12:03:43;;;;;;;16.17;2.72;;;14.50;64.10;;;;;;5135376;27;37643;-57
2022/03/17 12:06:19;;;;;;;11.30;2.58;;;14.50;64.70;;;;;;5134566;27;37815;-58
2022/03/17 12:09:02;;;;;;;11.95;2.40;;;14.50;64.50;;;;;;5135689;27;37937;-58
2022/03/17 12:11:31;;;;;;;11.55;2.75;;;14.20;64.70;;;;;;5136169;27;35607;-57
2022/03/17 12:14:27;;;;;;;13.23;2.78;;;13.90;65.60;;;;;;5133463;27;37558;-57
2022/03/17 12:16:56;;;;;;;9.80;2.00;;;13.80;63.80;;;;;;5086299;27;38639;-57
2022/03/17 12:19:32;;;;;;;11.77;2.33;;;13.70;65.40;;;;;;5136870;27;39232;-57
2022/03/17 12:22:35;;;;;;;13.57;2.72;;;13.70;65.10;;;;;;5136472;27;36629;-57
2022/03/17 12:25:13;;;;;;;10.60;2.40;;;13.60;62.90;;;;;;5125312;27;37836;-58
2022/03/17 12:27:43;;;;;;;10.88;2.28;;;13.60;65.40;;;;;;5136166;27;37483;-57
2022/03/17 12:30:13;;;;;;;17.30;2.63;;;13.50;65.40;;;;;;5136801;27;38355;-57
2022/03/17 12:32:42;;;;;;;8.65;1.80;;;13.50;65.60;;;;;;5135576;27;37387;-57
2022/03/17 12:35:10;;;;;;;14.68;2.55;;;13.50;67.30;;;;;;5135572;27;38198;-57
2022/03/17 12:37:40;;;;;;;11.50;2.40;;;13.60;67.40;;;;;;5136861;27;38588;-57
2022/03/17 12:40:12;;;;;;;10.48;2.25;;;13.70;66.60;;;;;;5135992;27;36872;-57
2022/03/17 12:42:41;;;;;;;13.15;2.50;;;13.60;65.60;;;;;;5136886;27;36503;-58
2022/03/17 12:45:11;;;;;;;14.75;3.03;;;13.60;65.90;;;;;;5136544;27;37672;-57
2022/03/17 12:47:41;;;;;;;12.77;3.10;;;13.50;65.60;;;;;;5136096;27;37814;-57
2022/03/17 12:50:12;;;;;;;14.00;2.85;;;13.50;66.60;;;;;;5136586;27;37792;-57
2022/03/17 12:52:41;;;;;;;10.55;2.20;;;13.40;66.40;;;;;;5135563;27;35348;-57
2022/03/17 12:55:12;;;;;;;13.30;1.98;;;13.40;67.30;;;;;;5135882;27;38412;-58